Time;durP1;ratioP1;P1;durP2;ratioP2;P2;SDS_P1;SDS_P2;PMS_P1;PMS_P2;Temp;Humidity;BMP_temperature;BMP_pressure;BME280_temperature;BME280_humidity;BME280_pressure;Samples;Min_cycle;Max_cycle;Signal;HPM_P1;HPM_P2
2021/10/10 00:00:15;;;;;;;;;;;;;;;23.63;28.94;98856.28;4983918;28;880;-80
2021/10/10 00:02:41;;;;;;;;;;;;;;;23.32;29.55;98856.47;4998528;28;1045;-80
2021/10/10 00:05:06;;;;;;;;;;;;;;;23.04;29.78;98852.13;5003306;28;963;-80
2021/10/10 00:07:32;;;;;;;;;;;;;;;23.13;29.75;98848.72;5059586;28;1966;-80
2021/10/10 00:09:57;;;;;;;;;;;;;;;23.30;29.51;98853.25;5041091;28;949;-80
2021/10/10 00:12:23;;;;;;;;;;;;;;;22.97;30.23;98851.47;5043850;28;847;-80
2021/10/10 00:14:48;;;;;;;;;;;;;;;23.43;29.40;98852.63;5041546;28;846;-81
2021/10/10 00:17:13;;;;;;;;;;;;;;;23.48;29.49;98847.22;5003874;28;860;-80
2021/10/10 00:19:39;;;;;;;;;;;;;;;23.43;29.06;98844.09;4963118;29;968;-80
2021/10/10 00:22:04;;;;;;;;;;;;;;;23.39;29.32;98844.16;4964644;29;888;-80
2021/10/10 00:24:30;;;;;;;;;;;;;;;23.22;29.53;98846.13;4963411;29;943;-80
2021/10/10 00:26:55;;;;;;;;;;;;;;;23.34;29.37;98836.94;4948426;29;1954;-80
2021/10/10 00:29:21;;;;;;;;;;;;;;;23.63;29.03;98839.22;4946930;29;1117;-80
2021/10/10 00:31:46;;;;;;;;;;;;;;;23.48;29.30;98838.69;4965170;29;756;-80
2021/10/10 00:34:11;;;;;;;;;;;;;;;23.09;29.66;98837.44;4924169;29;909;-80
2021/10/10 00:36:37;;;;;;;;;;;;;;;23.27;29.62;98836.31;4926767;29;863;-80
2021/10/10 00:39:02;;;;;;;;;;;;;;;23.72;29.04;98830.09;4924204;29;979;-80
2021/10/10 00:41:28;;;;;;;;;;;;;;;23.37;29.40;98830.41;4939640;29;911;-80
2021/10/10 00:43:53;;;;;;;;;;;;;;;23.55;29.06;98817.84;4905403;29;980;-80
2021/10/10 00:46:19;;;;;;;;;;;;;;;23.39;29.37;98825.06;4906989;29;1879;-80
2021/10/10 00:48:45;;;;;;;;;;;;;;;23.56;28.87;98827.97;4905041;29;928;-80
2021/10/10 00:51:11;;;;;;;;;;;;;;;23.39;29.34;98821.44;4936173;29;798;-80
2021/10/10 00:53:36;;;;;;;;;;;;;;;23.62;29.01;98829.88;4948599;28;931;-80
2021/10/10 00:56:02;;;;;;;;;;;;;;;23.82;28.71;98821.31;4988130;28;878;-80
2021/10/10 00:58:28;;;;;;;;;;;;;;;23.25;29.32;98819.69;4964737;29;900;-80
2021/10/10 01:00:53;;;;;;;;;;;;;;;23.70;28.64;98818.38;4967954;28;918;-80
2021/10/10 01:03:19;;;;;;;;;;;;;;;23.63;28.80;98819.34;4965159;28;902;-80
2021/10/10 01:05:45;;;;;;;;;;;;;;;23.03;29.81;98815.69;4996402;28;1954;-80
2021/10/10 01:08:13;;;;;;;;;;;;;;;23.38;29.32;98820.63;5004106;28;993;-80
2021/10/10 01:10:39;;;;;;;;;;;;;;;23.57;28.86;98819.03;5005650;28;850;-80
2021/10/10 01:13:05;;;;;;;;;;;;;;;23.32;29.27;98828.06;4984660;28;844;-80
2021/10/10 01:15:31;;;;;;;;;;;;;;;23.52;28.94;98830.09;4985851;28;899;-80
2021/10/10 01:17:56;;;;;;;;;;;;;;;23.21;29.33;98833.19;4968586;28;919;-80
2021/10/10 01:20:21;;;;;;;;;;;;;;;23.68;28.49;98827.34;4985341;28;783;-80
2021/10/10 01:22:47;;;;;;;;;;;;;;;23.27;29.18;98825.75;4985369;28;899;-80
2021/10/10 01:25:12;;;;;;;;;;;;;;;23.09;29.52;98825.28;4984516;28;889;-80
2021/10/10 01:27:38;;;;;;;;;;;;;;;23.78;28.53;98820.63;4985130;28;1914;-80
2021/10/10 01:30:03;;;;;;;;;;;;;;;23.83;28.31;98814.44;4983825;28;805;-80
2021/10/10 01:32:29;;;;;;;;;;;;;;;23.51;28.85;98812.25;4986283;28;959;-80
2021/10/10 01:34:54;;;;;;;;;;;;;;;23.40;28.94;98806.00;4985660;28;931;-81
2021/10/10 01:37:20;;;;;;;;;;;;;;;23.64;28.36;98809.56;5009862;28;1064;-80
2021/10/10 01:39:45;;;;;;;;;;;;;;;23.60;28.92;98814.50;5043363;28;803;-79
2021/10/10 01:42:11;;;;;;;;;;;;;;;23.55;28.90;98815.00;5044972;28;873;-80
2021/10/10 01:44:36;;;;;;;;;;;;;;;23.70;28.76;98822.00;5009728;28;933;-80
2021/10/10 01:47:01;;;;;;;;;;;;;;;23.90;28.34;98819.13;5045091;28;1953;-80
2021/10/10 01:49:27;;;;;;;;;;;;;;;23.58;28.49;98817.78;5044032;28;914;-80
2021/10/10 01:51:52;;;;;;;;;;;;;;;23.48;28.58;98818.03;5067683;28;759;-80
2021/10/10 01:54:18;;;;;;;;;;;;;;;23.68;28.69;98821.66;5065160;28;826;-80
2021/10/10 01:56:43;;;;;;;;;;;;;;;23.49;28.73;98822.44;5067382;28;747;-80
2021/10/10 01:59:08;;;;;;;;;;;;;;;23.83;28.20;98822.94;5064930;28;747;-80
2021/10/10 02:01:34;;;;;;;;;;;;;;;24.01;27.97;98798.97;5067311;28;823;-80
2021/10/10 02:03:59;;;;;;;;;;;;;;;23.59;28.41;98812.91;5064544;28;886;-80
2021/10/10 02:06:25;;;;;;;;;;;;;;;23.60;28.49;98803.13;5067475;28;1961;-79
2021/10/10 02:08:50;;;;;;;;;;;;;;;24.16;27.48;98803.09;5065460;28;758;-80
2021/10/10 02:11:16;;;;;;;;;;;;;;;23.60;28.51;98803.13;5067183;28;814;-80
2021/10/10 02:13:41;;;;;;;;;;;;;;;23.80;28.01;98805.97;5064825;28;801;-80
2021/10/10 02:16:07;;;;;;;;;;;;;;;23.98;28.06;98794.16;5067454;28;691;-80
2021/10/10 02:18:32;;;;;;;;;;;;;;;23.65;28.31;98799.81;5063357;28;874;-79
2021/10/10 02:20:58;;;;;;;;;;;;;;;23.71;28.43;98795.19;5067223;28;797;-79
2021/10/10 02:23:24;;;;;;;;;;;;;;;23.32;28.83;98794.00;5044263;28;947;-80
2021/10/10 02:25:50;;;;;;;;;;;;;;;23.28;28.90;98798.94;5066592;28;1903;-80
2021/10/10 02:28:15;;;;;;;;;;;;;;;23.39;28.55;98804.41;5063445;28;773;-80
2021/10/10 02:30:47;;;;;;;;;;;;;;;23.38;28.62;98809.28;5066778;28;742;-80
2021/10/10 02:33:13;;;;;;;;;;;;;;;23.38;28.68;98803.59;5063499;28;791;-80
2021/10/10 02:35:39;;;;;;;;;;;;;;;23.95;27.74;98798.72;5043468;28;871;-80
2021/10/10 02:38:04;;;;;;;;;;;;;;;23.44;28.47;98806.72;5041381;28;949;-80
2021/10/10 02:40:29;;;;;;;;;;;;;;;23.61;28.54;98808.38;5043110;28;996;-80
2021/10/10 02:42:55;;;;;;;;;;;;;;;24.00;27.94;98795.34;5041888;28;901;-80
2021/10/10 02:45:20;;;;;;;;;;;;;;;23.93;28.10;98804.03;5041738;28;993;-79
2021/10/10 02:47:46;;;;;;;;;;;;;;;23.59;28.42;98804.38;5041880;28;1887;-80
2021/10/10 02:50:11;;;;;;;;;;;;;;;23.45;28.80;98801.84;5042043;28;891;-80
2021/10/10 02:52:37;;;;;;;;;;;;;;;23.83;28.30;98800.22;5043788;28;838;-80
2021/10/10 02:55:02;;;;;;;;;;;;;;;23.76;28.10;98794.69;5042041;28;914;-80
2021/10/10 02:57:28;;;;;;;;;;;;;;;23.79;28.22;98799.50;5043820;28;918;-80
2021/10/10 02:59:53;;;;;;;;;;;;;;;23.81;28.02;98802.69;5042137;28;864;-80
2021/10/10 03:02:19;;;;;;;;;;;;;;;23.57;28.23;98799.16;5044392;28;829;-80
2021/10/10 03:04:44;;;;;;;;;;;;;;;24.14;27.57;98786.47;5041713;28;766;-80
2021/10/10 03:07:09;;;;;;;;;;;;;;;24.06;27.90;98790.72;5060369;28;1906;-81
2021/10/10 03:09:35;;;;;;;;;;;;;;;23.67;28.23;98785.94;5065032;28;893;-80
2021/10/10 03:12:00;;;;;;;;;;;;;;;23.91;28.00;98784.56;5049227;28;1009;-80
2021/10/10 03:14:26;;;;;;;;;;;;;;;23.77;28.17;98779.22;5065387;28;922;-80
2021/10/10 03:16:51;;;;;;;;;;;;;;;23.84;27.94;98787.59;5067911;28;820;-80
2021/10/10 03:19:16;;;;;;;;;;;;;;;23.86;28.03;98776.56;5065170;28;930;-80
2021/10/10 03:21:42;;;;;;;;;;;;;;;24.20;27.80;98783.91;5067651;28;799;-80
2021/10/10 03:24:07;;;;;;;;;;;;;;;23.59;28.41;98790.97;5064426;28;849;-80
2021/10/10 03:26:33;;;;;;;;;;;;;;;23.96;28.14;98780.41;5066998;28;1966;-81
2021/10/10 03:28:58;;;;;;;;;;;;;;;24.02;27.96;98792.06;5046444;28;1138;-80
2021/10/10 03:31:24;;;;;;;;;;;;;;;23.59;28.74;98795.84;5067586;28;739;-80
2021/10/10 03:33:49;;;;;;;;;;;;;;;23.50;28.81;98793.59;5065908;28;703;-79
2021/10/10 03:36:14;;;;;;;;;;;;;;;23.97;28.02;98795.41;5067242;28;755;-80
2021/10/10 03:38:40;;;;;;;;;;;;;;;23.87;28.24;98778.16;5065125;28;811;-80
2021/10/10 03:41:06;;;;;;;;;;;;;;;23.85;28.07;98794.88;5067808;28;930;-80
2021/10/10 03:43:32;;;;;;;;;;;;;;;24.00;27.88;98786.81;5065100;28;743;-80
2021/10/10 03:45:57;;;;;;;;;;;;;;;23.81;28.33;98797.00;5085093;28;1910;-79
2021/10/10 03:48:23;;;;;;;;;;;;;;;23.54;28.82;98802.84;5084583;28;1565;-80
2021/10/10 03:50:49;;;;;;;;;;;;;;;23.68;28.15;98809.50;5088402;28;889;-80
2021/10/10 03:53:14;;;;;;;;;;;;;;;24.05;28.03;98794.03;5085470;28;890;-80
2021/10/10 03:55:40;;;;;;;;;;;;;;;24.12;27.97;98797.47;5065614;28;969;-80
2021/10/10 03:58:06;;;;;;;;;;;;;;;23.98;28.01;98808.38;5064373;28;1045;-80
2021/10/10 04:00:32;;;;;;;;;;;;;;;23.88;28.16;98796.84;5066059;28;935;-79
2021/10/10 04:02:59;;;;;;;;;;;;;;;23.89;28.37;98814.69;5064646;28;1769;-80
2021/10/10 04:07:59;;;;;;;;;;;;;;;23.01;29.61;98813.28;5064506;28;1902;-80
2021/10/10 04:10:24;;;;;;;;;;;;;;;23.29;29.18;98816.78;5065204;28;970;-79
2021/10/10 04:12:50;;;;;;;;;;;;;;;23.18;29.43;98816.19;5064586;28;988;-80
2021/10/10 04:15:16;;;;;;;;;;;;;;;23.23;28.99;98819.34;5064198;28;1075;-79
2021/10/10 04:17:41;;;;;;;;;;;;;;;22.66;30.29;98814.72;5063592;28;1656;-80
2021/10/10 04:20:07;;;;;;;;;;;;;;;22.70;29.96;98814.66;5063755;28;1645;-80
2021/10/10 04:22:32;;;;;;;;;;;;;;;23.39;28.80;98821.44;5066428;28;984;-79
2021/10/10 04:24:58;;;;;;;;;;;;;;;23.49;28.95;98825.28;5064409;28;869;-80
2021/10/10 04:27:23;;;;;;;;;;;;;;;23.16;29.42;98818.66;5083032;28;1950;-80
2021/10/10 04:29:49;;;;;;;;;;;;;;;23.77;28.14;98819.00;5089776;28;775;-81
2021/10/10 04:32:15;;;;;;;;;;;;;;;23.36;29.03;98822.31;5092698;28;910;-80
2021/10/10 04:34:40;;;;;;;;;;;;;;;23.79;28.26;98822.22;5089701;28;998;-79
2021/10/10 04:37:06;;;;;;;;;;;;;;;23.84;28.12;98813.19;5091164;28;1589;-80
2021/10/10 04:39:31;;;;;;;;;;;;;;;23.47;28.56;98816.41;5089109;28;854;-79
2021/10/10 04:41:57;;;;;;;;;;;;;;;23.67;28.31;98817.19;5091551;28;822;-80
2021/10/10 04:44:22;;;;;;;;;;;;;;;23.88;28.31;98802.53;5089163;28;892;-81
2021/10/10 04:46:48;;;;;;;;;;;;;;;23.61;28.50;98804.72;5090980;28;1894;-80
2021/10/10 04:49:13;;;;;;;;;;;;;;;23.73;28.23;98812.63;5089710;28;819;-80
2021/10/10 04:51:38;;;;;;;;;;;;;;;23.87;28.44;98817.97;5092219;28;932;-80
2021/10/10 04:54:04;;;;;;;;;;;;;;;24.07;27.97;98800.84;5091092;28;865;-80
2021/10/10 04:56:29;;;;;;;;;;;;;;;24.08;27.99;98804.50;5069477;28;1645;-78
2021/10/10 04:58:55;;;;;;;;;;;;;;;23.81;28.25;98807.56;5067815;28;912;-80
2021/10/10 05:01:20;;;;;;;;;;;;;;;23.74;28.23;98808.53;5069278;28;817;-79
2021/10/10 05:03:46;;;;;;;;;;;;;;;23.97;28.14;98809.63;5067599;28;880;-80
2021/10/10 05:06:11;;;;;;;;;;;;;;;24.11;28.14;98810.09;5069215;28;1887;-78
2021/10/10 05:08:36;;;;;;;;;;;;;;;24.01;27.91;98816.03;5066869;28;918;-80
2021/10/10 05:11:02;;;;;;;;;;;;;;;24.12;27.99;98806.00;5070242;28;1811;-81
2021/10/10 05:13:27;;;;;;;;;;;;;;;24.30;27.62;98810.47;5065860;28;987;-80
2021/10/10 05:15:53;;;;;;;;;;;;;;;24.51;27.12;98809.16;5069934;28;892;-80
2021/10/10 05:18:21;;;;;;;;;;;;;;;23.91;28.22;98813.00;5066378;28;1606;-80
2021/10/10 05:20:46;;;;;;;;;;;;;;;24.17;27.74;98807.53;5069029;28;1706;-80
2021/10/10 05:23:15;;;;;;;;;;;;;;;23.51;28.68;98819.97;5066904;28;816;-79
2021/10/10 05:25:40;;;;;;;;;;;;;;;23.30;28.88;98813.50;5032001;28;1882;-80
2021/10/10 05:28:06;;;;;;;;;;;;;;;23.49;28.51;98817.56;5056186;28;1091;-80
2021/10/10 05:30:31;;;;;;;;;;;;;;;23.34;28.61;98824.78;5049827;28;1599;-79
2021/10/10 05:32:57;;;;;;;;;;;;;;;23.12;29.24;98832.94;5045286;28;849;-80
2021/10/10 05:35:22;;;;;;;;;;;;;;;23.04;29.50;98839.97;5045202;28;997;-78
2021/10/10 05:37:47;;;;;;;;;;;;;;;23.27;29.12;98842.78;5044327;28;878;-80
2021/10/10 05:40:13;;;;;;;;;;;;;;;23.49;29.01;98850.84;5044687;28;893;-80
2021/10/10 05:42:38;;;;;;;;;;;;;;;23.66;28.84;98852.53;5064032;28;1711;-80
2021/10/10 05:45:04;;;;;;;;;;;;;;;23.28;29.11;98847.22;5064783;28;846;-80
2021/10/10 05:47:30;;;;;;;;;;;;;;;23.31;29.21;98854.88;5066240;28;1975;-80
2021/10/10 05:49:55;;;;;;;;;;;;;;;23.43;28.77;98849.78;5064595;28;953;-80
2021/10/10 05:52:24;;;;;;;;;;;;;;;23.70;28.69;98853.28;5065894;28;1631;-80
2021/10/10 05:54:49;;;;;;;;;;;;;;;23.87;28.39;98857.75;5065226;28;1008;-80
2021/10/10 05:57:19;;;;;;;;;;;;;;;23.54;28.70;98850.34;5066730;28;970;-80
2021/10/10 05:59:46;;;;;;;;;;;;;;;23.68;28.44;98855.75;5066784;28;858;-80
2021/10/10 06:02:11;;;;;;;;;;;;;;;23.84;28.54;98852.97;5081721;28;1566;-81
2021/10/10 06:04:38;;;;;;;;;;;;;;;23.67;28.62;98851.28;5087451;28;922;-80
2021/10/10 06:07:03;;;;;;;;;;;;;;;24.16;27.77;98848.59;5089105;28;1882;-80
2021/10/10 06:09:28;;;;;;;;;;;;;;;24.01;28.26;98856.63;5087163;28;979;-79
2021/10/10 06:11:54;;;;;;;;;;;;;;;23.74;28.72;98851.16;5089328;28;884;-80
2021/10/10 06:14:19;;;;;;;;;;;;;;;23.76;28.47;98857.19;5068529;28;1014;-79
2021/10/10 06:16:45;;;;;;;;;;;;;;;23.35;28.99;98858.41;5088057;28;1554;-80
2021/10/10 06:19:10;;;;;;;;;;;;;;;23.87;28.43;98846.38;5086382;28;1557;-80
2021/10/10 06:21:36;;;;;;;;;;;;;;;24.13;27.81;98858.78;5089144;28;928;-80
2021/10/10 06:24:01;;;;;;;;;;;;;;;23.83;28.18;98859.91;5087831;28;968;-79
2021/10/10 06:26:27;;;;;;;;;;;;;;;23.65;28.43;98862.31;5089549;28;1886;-80
2021/10/10 06:28:52;;;;;;;;;;;;;;;23.89;28.12;98852.44;5087106;28;1458;-80
2021/10/10 06:31:17;;;;;;;;;;;;;;;23.83;28.26;98850.56;5088727;28;806;-80
2021/10/10 06:33:43;;;;;;;;;;;;;;;23.66;28.56;98846.84;5064385;28;1195;-80
2021/10/10 06:36:08;;;;;;;;;;;;;;;23.26;28.97;98851.72;5066459;28;1016;-79
2021/10/10 06:38:34;;;;;;;;;;;;;;;23.37;28.50;98849.47;5062564;28;1630;-80
2021/10/10 06:41:00;;;;;;;;;;;;;;;23.32;28.56;98838.63;5066720;28;862;-80
2021/10/10 06:43:25;;;;;;;;;;;;;;;23.35;28.68;98844.22;5079241;28;957;-80
2021/10/10 06:45:50;;;;;;;;;;;;;;;22.78;29.89;98839.63;5066296;28;1898;-80
2021/10/10 06:48:16;;;;;;;;;;;;;;;23.46;28.99;98846.03;5063819;28;1652;-80
2021/10/10 06:50:41;;;;;;;;;;;;;;;23.28;29.21;98844.38;5033315;28;967;-79
2021/10/10 06:53:07;;;;;;;;;;;;;;;23.75;28.26;98844.22;5064410;28;1012;-80
2021/10/10 06:55:32;;;;;;;;;;;;;;;23.87;28.25;98835.00;5066245;28;935;-80
2021/10/10 06:57:57;;;;;;;;;;;;;;;24.11;27.62;98837.72;5047878;28;1672;-80
2021/10/10 07:00:23;;;;;;;;;;;;;;;24.17;27.73;98841.66;5065546;28;862;-80
2021/10/10 07:02:48;;;;;;;;;;;;;;;24.06;27.64;98843.94;5065766;28;978;-80
2021/10/10 07:05:16;;;;;;;;;;;;;;;23.78;28.08;98854.72;5066801;28;866;-80
2021/10/10 07:07:41;;;;;;;;;;;;;;;23.88;28.08;98852.88;5054161;28;1902;-80
2021/10/10 07:10:07;;;;;;;;;;;;;;;23.48;29.18;98846.41;5086295;28;933;-81
2021/10/10 07:12:32;;;;;;;;;;;;;;;23.98;28.21;98845.34;5045828;28;951;-79
2021/10/10 07:14:58;;;;;;;;;;;;;;;23.84;28.29;98847.28;5044545;28;872;-80
2021/10/10 07:17:27;;;;;;;;;;;;;;;23.75;28.40;98838.53;5045857;28;1876;-80
2021/10/10 07:20:02;;;;;;;;;;;;;;;23.98;27.83;98839.66;5043554;28;1062;-80
2021/10/10 07:25:05;;;;;;;;;;;;;;;23.61;28.28;98844.50;5003560;28;1227;-80
2021/10/10 07:27:33;;;;;;;;;;;;;;;23.61;28.19;98847.34;5004829;28;1895;-80
2021/10/10 07:29:58;;;;;;;;;;;;;;;23.63;28.08;98839.22;4945492;29;977;-80
2021/10/10 07:32:23;;;;;;;;;;;;;;;23.36;29.13;98850.69;4947772;29;920;-80
2021/10/10 07:34:49;;;;;;;;;;;;;;;22.71;30.30;98833.28;4945832;29;995;-80
2021/10/10 07:37:14;;;;;;;;;;;;;;;23.26;29.53;98835.50;4948461;29;1607;-80
2021/10/10 07:39:40;;;;;;;;;;;;;;;23.47;29.25;98839.16;4945567;29;1591;-80
2021/10/10 07:42:05;;;;;;;;;;;;;;;23.72;28.62;98836.56;4917001;29;1122;-80
2021/10/10 07:44:31;;;;;;;;;;;;;;;23.64;28.92;98838.00;4981114;28;883;-80
2021/10/10 07:50:00;;;;;;;;;;;;;;;23.72;28.61;98845.09;4946339;29;895;-80
2021/10/10 07:52:26;;;;;;;;;;;;;;;23.40;28.91;98843.72;4948298;29;1049;-80
2021/10/10 07:54:51;;;;;;;;;;;;;;;23.84;28.53;98847.28;4945653;29;1096;-80
2021/10/10 07:57:17;;;;;;;;;;;;;;;23.61;29.08;98850.97;4967105;29;1642;-80
2021/10/10 07:59:42;;;;;;;;;;;;;;;23.96;28.29;98842.16;4983701;28;903;-80
2021/10/10 08:02:08;;;;;;;;;;;;;;;23.60;29.10;98846.53;5043670;28;914;-80
2021/10/10 08:04:33;;;;;;;;;;;;;;;24.01;28.46;98838.78;5042874;28;956;-80
2021/10/10 08:06:59;;;;;;;;;;;;;;;24.31;27.84;98837.66;5043730;28;1970;-80
2021/10/10 08:09:24;;;;;;;;;;;;;;;23.91;28.40;98832.09;5042917;28;797;-80
2021/10/10 08:11:50;;;;;;;;;;;;;;;24.17;28.32;98825.38;5044929;28;982;-80
2021/10/10 08:14:15;;;;;;;;;;;;;;;23.51;29.10;98840.66;5041996;28;936;-80
2021/10/10 08:16:41;;;;;;;;;;;;;;;23.46;29.11;98837.53;5043545;28;1639;-79
2021/10/10 08:19:06;;;;;;;;;;;;;;;23.71;28.34;98837.81;5042474;28;862;-80
2021/10/10 08:21:32;;;;;;;;;;;;;;;23.55;28.92;98829.22;5078797;28;1006;-79
2021/10/10 08:23:58;;;;;;;;;;;;;;;23.31;29.17;98832.16;5082837;28;1661;-79
2021/10/10 08:26:24;;;;;;;;;;;;;;;23.18;29.48;98828.34;5086210;28;1972;-81
2021/10/10 08:28:49;;;;;;;;;;;;;;;23.20;29.38;98828.72;5083983;28;857;-79
2021/10/10 08:31:14;;;;;;;;;;;;;;;22.99;30.17;98827.09;5086960;28;996;-80
2021/10/10 08:33:40;;;;;;;;;;;;;;;22.87;30.41;98834.19;5084774;28;1576;-80
2021/10/10 08:36:08;;;;;;;;;;;;;;;23.04;30.28;98828.63;5087370;28;1064;-80
2021/10/10 08:38:34;;;;;;;;;;;;;;;23.67;29.45;98825.72;5083689;28;810;-78
2021/10/10 08:41:00;;;;;;;;;;;;;;;23.31;29.67;98817.13;5087962;28;900;-80
2021/10/10 08:43:25;;;;;;;;;;;;;;;23.38;29.52;98823.47;5083442;28;1541;-80
2021/10/10 08:45:51;;;;;;;;;;;;;;;23.73;28.93;98818.31;5086143;28;1886;-80
2021/10/10 08:48:17;;;;;;;;;;;;;;;23.78;28.91;98826.31;5083409;28;1011;-79
2021/10/10 08:50:43;;;;;;;;;;;;;;;24.02;28.60;98821.28;5087372;28;1556;-79
2021/10/10 08:53:08;;;;;;;;;;;;;;;24.01;28.69;98816.03;5062873;28;949;-80
2021/10/10 08:55:33;;;;;;;;;;;;;;;23.98;28.81;98822.59;5064378;28;971;-80
2021/10/10 08:57:59;;;;;;;;;;;;;;;23.67;29.21;98820.03;5063234;28;885;-80
2021/10/10 09:00:36;;;;;;;;;;;;;;;23.99;28.73;98827.88;5044070;28;1651;-80
2021/10/10 09:03:01;;;;;;;;;;;;;;;24.08;28.90;98830.88;5042955;28;885;-80
2021/10/10 09:05:27;;;;;;;;;;;;;;;24.31;28.41;98835.63;5044581;28;856;-80
2021/10/10 09:07:54;;;;;;;;;;;;;;;24.51;27.81;98829.88;5044417;28;1967;-80
2021/10/10 09:10:21;;;;;;;;;;;;;;;24.02;28.80;98826.16;5043479;28;1564;-79
2021/10/10 09:12:49;;;;;;;;;;;;;;;23.99;28.44;98819.34;5043836;28;1653;-80
2021/10/10 09:15:15;;;;;;;;;;;;;;;23.50;29.28;98827.69;5045098;28;973;-79
2021/10/10 09:17:44;;;;;;;;;;;;;;;23.36;29.29;98822.31;5046919;28;920;-79
2021/10/10 09:20:11;;;;;;;;;;;;;;;23.24;29.48;98832.28;5043181;28;958;-79
2021/10/10 09:22:36;;;;;;;;;;;;;;;23.24;29.54;98822.97;5046760;28;1587;-80
2021/10/10 09:25:08;;;;;;;;;;;;;;;23.27;29.46;98825.75;5062987;28;944;-79
2021/10/10 09:27:33;;;;;;;;;;;;;;;23.25;29.70;98821.72;5067560;28;1965;-79
2021/10/10 09:30:02;;;;;;;;;;;;;;;23.01;30.71;98821.00;5065427;28;803;-80
2021/10/10 09:32:28;;;;;;;;;;;;;;;23.67;29.27;98820.03;5088477;28;1680;-80
2021/10/10 09:34:53;;;;;;;;;;;;;;;23.24;30.29;98826.59;5087514;28;884;-80
2021/10/10 09:37:28;;;;;;;;;;;;;;;23.79;29.19;98822.22;5067371;28;961;-80
2021/10/10 09:42:56;;;;;;;;;;;;;;;23.55;29.52;98829.22;5026397;28;1545;-80
2021/10/10 09:48:11;;;;;;;;;;;;;;;24.12;28.72;98827.97;4966056;29;1910;-80
2021/10/10 09:50:37;;;;;;;;;;;;;;;24.05;28.85;98816.75;4968013;29;1696;-80
2021/10/10 09:53:02;;;;;;;;;;;;;;;24.44;28.00;98821.50;4948053;29;1021;-80
2021/10/10 09:55:29;;;;;;;;;;;;;;;23.97;28.95;98818.16;4948470;29;821;-80
2021/10/10 09:57:54;;;;;;;;;;;;;;;23.73;29.21;98820.34;4910303;29;917;-80
2021/10/10 10:00:24;;;;;;;;;;;;;;;23.65;28.98;98816.84;4891023;29;1007;-80
2021/10/10 10:02:51;;;;;;;;;;;;;;;23.30;29.26;98807.00;4874122;29;1607;-79
2021/10/10 10:05:23;;;;;;;;;;;;;;;23.15;29.79;98812.19;4890592;29;989;-80
2021/10/10 10:07:48;;;;;;;;;;;;;;;23.18;29.68;98814.16;4896733;29;1876;-79
2021/10/10 10:10:14;;;;;;;;;;;;;;;23.09;29.98;98816.78;4925364;29;895;-79
2021/10/10 10:12:39;;;;;;;;;;;;;;;22.34;31.49;98818.91;4926210;29;1593;-80
2021/10/10 10:15:04;;;;;;;;;;;;;;;22.61;31.16;98809.53;4926686;29;1705;-80
2021/10/10 10:17:30;;;;;;;;;;;;;;;22.82;30.60;98817.66;4931518;29;1013;-80
2021/10/10 10:19:56;;;;;;;;;;;;;;;23.64;29.33;98826.63;4945925;29;1020;-80
2021/10/10 10:22:22;;;;;;;;;;;;;;;23.63;29.29;98830.72;4948042;29;1536;-80
2021/10/10 10:24:47;;;;;;;;;;;;;;;23.50;29.36;98832.56;4935765;29;1016;-80
2021/10/10 10:27:13;;;;;;;;;;;;;;;23.65;29.54;98839.59;4962886;29;1895;-79
2021/10/10 10:29:39;;;;;;;;;;;;;;;23.42;29.52;98836.81;4985809;28;1002;-78
2021/10/10 10:32:06;;;;;;;;;;;;;;;23.84;29.24;98841.59;5047317;28;1661;-77
2021/10/10 10:34:32;;;;;;;;;;;;;;;24.06;28.56;98836.22;5075958;28;934;-78
2021/10/10 10:36:59;;;;;;;;;;;;;;;23.86;28.51;98836.25;5076045;28;917;-78
2021/10/10 10:39:33;;;;;;;;;;;;;;;23.39;29.27;98827.13;5081778;28;1141;-80
2021/10/10 10:41:59;;;;;;;;;;;;;;;23.64;29.23;98838.00;5084496;28;1590;-79
2021/10/10 10:44:36;;;;;;;;;;;;;;;23.63;29.09;98820.13;5057244;28;1087;-78
2021/10/10 10:47:05;;;;;;;;;;;;;;;23.48;29.39;98835.06;5018416;28;1969;-81
2021/10/10 10:49:49;;;;;;;;;;;;;;;23.19;29.82;98835.63;5027149;28;815;-81
2021/10/10 10:52:24;;;;;;;;;;;;;;;23.26;29.85;98829.81;5029550;28;1543;-81
2021/10/10 10:54:56;;;;;;;;;;;;;;;22.74;31.08;98821.88;5017704;28;1000;-78
2021/10/10 10:57:34;;;;;;;;;;;;;;;23.49;29.91;98828.13;5015903;28;937;-78
2021/10/10 11:00:06;;;;;;;;;;;;;;;23.46;29.85;98829.00;5015587;28;1222;-79
2021/10/10 11:02:47;;;;;;;;;;;;;;;23.34;29.95;98831.25;5016825;28;1622;-79
2021/10/10 11:05:19;;;;;;;;;;;;;;;23.86;29.10;98839.09;4976436;28;929;-78
2021/10/10 11:07:50;;;;;;;;;;;;;;;23.46;29.64;98837.53;4977264;28;1968;-77
2021/10/10 11:10:15;;;;;;;;;;;;;;;23.78;29.19;98837.69;4978964;28;960;-81
2021/10/10 11:12:41;;;;;;;;;;;;;;;24.00;29.05;98825.81;4979467;28;1463;-80
2021/10/10 11:15:10;;;;;;;;;;;;;;;23.66;29.49;98824.13;4977669;28;1668;-78
2021/10/10 11:17:36;;;;;;;;;;;;;;;23.83;29.38;98827.84;4985131;28;1157;-79
2021/10/10 11:20:02;;;;;;;;;;;;;;;23.24;30.07;98826.59;4997148;28;1011;-79
2021/10/10 11:22:27;;;;;;;;;;;;;;;23.53;29.50;98834.53;4978201;28;1715;-79
2021/10/10 11:24:53;;;;;;;;;;;;;;;23.32;29.76;98835.78;4977191;28;920;-79
2021/10/10 11:27:20;;;;;;;;;;;;;;;23.59;29.19;98842.09;4977706;28;1907;-74
2021/10/10 11:29:49;;;;;;;;;;;;;;;23.27;29.89;98837.09;4975862;28;1012;-79
2021/10/10 11:32:14;;;;;;;;;;;;;;;23.26;29.77;98846.88;4977192;28;1628;-77
2021/10/10 11:34:40;;;;;;;;;;;;;;;23.22;29.77;98851.00;4976604;28;1021;-79
2021/10/10 11:37:11;;;;;;;;;;;;;;;23.31;30.02;98854.88;5017909;28;1682;-78
2021/10/10 11:39:36;;;;;;;;;;;;;;;22.87;30.80;98871.06;5034868;28;1020;-79
2021/10/10 11:42:10;;;;;;;;;;;;;;;23.47;30.08;98856.19;5035185;28;1647;-78
2021/10/10 11:44:37;;;;;;;;;;;;;;;23.91;29.44;98847.09;5035023;28;912;-78
2021/10/10 11:47:04;;;;;;;;;;;;;;;23.92;29.44;98843.03;5033879;28;1910;-73
2021/10/10 11:49:34;;;;;;;;;;;;;;;23.97;29.51;98836.00;5034280;28;931;-76
2021/10/10 11:52:07;;;;;;;;;;;;;;;23.95;29.90;98829.97;5043744;28;1588;-79
2021/10/10 11:54:38;;;;;;;;;;;;;;;23.38;30.55;98826.31;5026292;28;1499;-80
2021/10/10 11:57:04;;;;;;;;;;;;;;;23.62;30.12;98834.72;5044102;28;986;-80
2021/10/10 11:59:29;;;;;;;;;;;;;;;23.82;29.94;98829.84;5049925;28;924;-80
2021/10/10 12:01:55;;;;;;;;;;;;;;;23.47;30.45;98827.78;5064176;28;1027;-80
2021/10/10 12:04:20;;;;;;;;;;;;;;;23.61;29.82;98827.47;5062146;28;1494;-80
2021/10/10 12:06:47;;;;;;;;;;;;;;;22.79;30.87;98818.50;5064289;28;1961;-80
2021/10/10 12:09:12;;;;;;;;;;;;;;;23.34;30.03;98814.22;5062117;28;880;-80
2021/10/10 12:11:39;;;;;;;;;;;;;;;23.53;29.26;98820.34;5064388;28;1222;-79
2021/10/10 12:14:05;;;;;;;;;;;;;;;23.32;29.82;98816.72;5055413;28;1661;-79
2021/10/10 12:16:42;;;;;;;;;;;;;;;23.04;29.99;98808.75;5037190;28;1168;-78
2021/10/10 12:19:09;;;;;;;;;;;;;;;22.84;30.60;98809.50;5034850;28;941;-75
2021/10/10 12:21:36;;;;;;;;;;;;;;;23.01;30.55;98806.81;5021472;28;1135;-79
2021/10/10 12:24:14;;;;;;;;;;;;;;;23.52;30.15;98801.69;5051829;28;1621;-79
2021/10/10 12:26:52;;;;;;;;;;;;;;;23.52;29.82;98813.03;5040508;28;1898;-78
2021/10/10 12:29:27;;;;;;;;;;;;;;;23.70;29.23;98807.00;5056275;28;1032;-79
2021/10/10 12:31:53;;;;;;;;;;;;;;;23.72;29.04;98802.47;5055301;28;1167;-79
2021/10/10 12:34:19;;;;;;;;;;;;;;;23.39;29.25;98799.50;5053668;28;1515;-78
2021/10/10 12:36:45;;;;;;;;;;;;;;;23.13;29.88;98789.13;5061869;28;981;-80
2021/10/10 12:39:10;;;;;;;;;;;;;;;23.21;29.85;98790.59;5044632;28;1090;-79
2021/10/10 12:41:36;;;;;;;;;;;;;;;23.21;29.91;98790.59;5062544;28;866;-79
2021/10/10 12:44:03;;;;;;;;;;;;;;;23.12;29.68;98791.16;5058299;28;1635;-80
2021/10/10 12:46:44;;;;;;;;;;;;;;;23.01;30.06;98786.94;5064880;28;1871;-79
2021/10/10 12:49:10;;;;;;;;;;;;;;;22.93;30.02;98796.81;5066078;28;990;-79
2021/10/10 12:51:35;;;;;;;;;;;;;;;22.90;30.00;98795.66;5068545;28;910;-80
2021/10/10 12:54:13;;;;;;;;;;;;;;;22.84;30.09;98791.69;5082343;28;1577;-80
2021/10/10 12:56:38;;;;;;;;;;;;;;;22.81;30.03;98787.69;5089716;28;869;-80
2021/10/10 12:59:04;;;;;;;;;;;;;;;22.80;30.16;98780.41;5087194;28;845;-80
2021/10/10 13:01:31;;;;;;;;;;;;;;;22.64;30.22;98774.66;5088700;28;1117;-79
2021/10/10 13:03:58;;;;;;;;;;;;;;;22.77;30.29;98781.28;5087476;28;1656;-80
2021/10/10 13:06:24;;;;;;;;;;;;;;;22.73;30.05;98774.84;5089686;28;1889;-78
2021/10/10 13:08:56;;;;;;;;;;;;;;;22.75;29.96;98783.75;5087155;28;903;-79
2021/10/10 13:11:22;;;;;;;;;;;;;;;22.66;30.21;98786.34;5089866;28;870;-78